Time;durP1;ratioP1;P1;durP2;ratioP2;P2;SDS_P1;SDS_P2;PMS_P1;PMS_P2;Temp;Humidity;BMP_temperature;BMP_pressure;BME280_temperature;BME280_humidity;BME280_pressure;Samples;Min_cycle;Max_cycle;Signal;HPM_P1;HPM_P2
2022/12/29 00:01:29;;;;;;;3.72;3.20;;;;;;;8.29;100.00;99935.78;6146277;23;20087;-86
2022/12/29 00:03:54;;;;;;;2.72;2.50;;;;;;;8.30;100.00;99932.16;6172192;23;20036;-88
2022/12/29 00:06:20;;;;;;;2.40;2.10;;;;;;;8.29;100.00;99938.41;6171363;23;20001;-89
2022/12/29 00:08:45;;;;;;;2.65;2.40;;;;;;;8.35;100.00;99940.72;6174637;23;20301;-89
2022/12/29 00:11:19;;;;;;;2.75;2.30;;;;;;;8.30;100.00;99937.47;6173366;23;20056;-88
2022/12/29 00:16:29;;;;;;;5.03;3.13;;;;;;;8.30;100.00;99924.22;6171861;23;19935;-88
2022/12/29 00:18:55;;;;;;;4.43;3.10;;;;;;;8.28;100.00;99923.47;6146159;23;20001;-88
2022/12/29 00:35:25;;;;;;;12.50;10.80;;;;;;;8.28;100.00;99883.69;6172033;23;20020;-89
2022/12/29 00:46:02;;;;;;;9.93;8.95;;;;;;;8.35;100.00;99887.69;6173791;23;19915;-88
2022/12/29 00:51:15;;;;;;;10.27;9.27;;;;;;;8.26;100.00;99866.16;6108976;23;20041;-89
2022/12/29 00:53:41;;;;;;;9.02;8.00;;;;;;;8.31;100.00;99864.94;6109955;23;20054;-89
2022/12/29 00:56:06;;;;;;;7.18;6.45;;;;;;;8.38;100.00;99863.69;6110984;23;20005;-89
2022/12/29 00:58:32;;;;;;;8.75;6.65;;;;;;;8.38;100.00;99869.00;6109630;23;20097;-90
2022/12/29 01:01:02;;;;;;;6.65;5.95;;;;;;;8.42;100.00;99864.38;6110693;23;20069;-89
2022/12/29 01:03:27;;;;;;;6.15;5.55;;;;;;;8.40;100.00;99848.56;6111986;23;20182;-90
2022/12/29 01:05:52;;;;;;;5.60;5.10;;;;;;;8.30;100.00;99822.63;6118225;23;20347;-89
2022/12/29 01:08:17;;;;;;;7.70;4.97;;;;;;;8.41;100.00;99858.22;6122160;23;20010;-90
2022/12/29 01:10:43;;;;;;;5.43;4.90;;;;;;;8.36;100.00;99827.56;6117980;23;20025;-90
2022/12/29 01:13:08;;;;;;;4.85;4.40;;;;;;;8.36;100.00;99820.47;6127670;23;20511;-89
2022/12/29 01:15:33;;;;;;;5.10;4.07;;;;;;;8.37;100.00;99834.63;6125492;23;20014;-90
2022/12/29 01:17:58;;;;;;;5.05;4.40;;;;;;;8.28;100.00;99832.44;6120549;23;20397;-90
2022/12/29 01:20:24;;;;;;;7.10;3.97;;;;;;;8.25;100.00;99825.53;6112536;23;20017;-90
2022/12/29 01:22:49;;;;;;;4.88;3.72;;;;;;;8.33;100.00;99843.66;6114665;23;20574;-90
2022/12/29 01:25:14;;;;;;;3.95;3.55;;;;;;;8.28;100.00;99840.41;6116379;23;20089;-90
2022/12/29 01:27:40;;;;;;;5.57;3.38;;;;;;;8.29;100.00;99840.31;6131645;23;20009;-91
2022/12/29 01:30:06;;;;;;;4.38;3.38;;;;;;;8.36;100.00;99838.16;6178080;23;20459;-90
2022/12/29 01:32:31;;;;;;;3.72;2.88;;;;;;;8.34;100.00;99840.06;6175647;23;20544;-89
2022/12/29 01:34:56;;;;;;;6.55;2.80;;;;;;;8.35;100.00;99837.31;6177135;23;20032;-90
2022/12/29 01:37:21;;;;;;;3.80;2.70;;;;;;;8.32;100.00;99820.72;6175789;23;20423;-88
2022/12/29 01:39:47;;;;;;;4.75;2.92;;;;;;;8.35;100.00;99836.47;6191179;23;20001;-90
2022/12/29 01:42:17;;;;;;;2.60;2.40;;;;;;;8.29;100.00;99832.38;6194684;23;20005;-89
2022/12/29 01:44:51;;;;;;;3.30;2.38;;;;;;;8.32;100.00;99826.91;6168605;23;20013;-89
2022/12/29 01:47:35;;;;;;;4.00;2.35;;;;;;;8.29;100.00;99827.06;6195903;23;20025;-88
2022/12/29 01:50:06;;;;;;;2.53;2.30;;;;;;;8.31;100.00;99834.94;6193180;23;20021;-89
2022/12/29 01:52:35;;;;;;;3.15;2.10;;;;;;;8.30;100.00;99823.47;6198819;23;20088;-89
2022/12/29 01:55:03;;;;;;;4.05;2.10;;;;;;;8.31;100.00;99826.97;6184304;23;20009;-90
2022/12/29 01:57:34;;;;;;;3.08;2.00;;;;;;;8.32;100.00;99826.91;6176814;23;20005;-89
2022/12/29 02:00:04;;;;;;;2.47;2.13;;;;;;;8.35;100.00;99823.19;6179218;23;20009;-90
2022/12/29 02:02:30;;;;;;;3.92;2.08;;;;;;;8.32;100.00;99832.22;6177950;23;20032;-90
2022/12/29 02:04:59;;;;;;;3.28;2.00;;;;;;;8.38;100.00;99825.72;6178010;23;20419;-90
2022/12/29 02:07:26;;;;;;;5.70;2.10;;;;;;;8.42;100.00;99843.16;6176723;23;20498;-90
2022/12/29 02:09:54;;;;;;;4.05;2.10;;;;;;;8.43;100.00;99840.41;6177241;23;20007;-89
2022/12/29 02:12:21;;;;;;;4.10;1.77;;;;;;;8.40;100.00;99829.13;6175168;23;20036;-90
2022/12/29 02:14:49;;;;;;;7.45;2.22;;;;;;;8.46;100.00;99834.09;6176344;23;20011;-90
2022/12/29 02:17:45;;;;;;;4.22;2.05;;;;;;;8.41;100.00;99844.97;6175795;23;20005;-91
2022/12/29 02:20:22;;;;;;;3.65;1.75;;;;;;;8.47;100.00;99838.44;6176280;23;20025;-90
2022/12/29 02:23:00;;;;;;;2.90;1.80;;;;;;;8.45;100.00;99849.16;6176477;23;20079;-91
2022/12/29 02:25:32;;;;;;;4.28;1.92;;;;;;;8.51;100.00;99825.84;6174641;23;20005;-90
2022/12/29 02:28:27;;;;;;;3.28;1.95;;;;;;;8.53;100.00;99834.56;6175808;23;20012;-90
2022/12/29 02:31:06;;;;;;;5.00;2.05;;;;;;;8.40;100.00;99821.16;6175042;23;20020;-90
2022/12/29 02:33:40;;;;;;;4.97;1.92;;;;;;;8.47;100.00;99833.13;6149729;23;20063;-92
2022/12/29 02:36:19;;;;;;;6.53;2.22;;;;;;;8.38;100.00;99809.81;6176511;23;20112;-91
2022/12/29 02:39:00;;;;;;;5.63;2.33;;;;;;;8.39;100.00;99820.31;6176951;23;20067;-91
2022/12/29 02:41:57;;;;;;;3.88;2.03;;;;;;;8.38;100.00;99828.38;6174432;23;20008;-90
2022/12/29 02:44:31;;;;;;;5.63;2.15;;;;;;;8.26;100.00;99798.06;6128994;23;20375;-90
2022/12/29 02:47:08;;;;;;;4.00;2.00;;;;;;;8.34;100.00;99811.75;6174693;23;20423;-90
2022/12/29 02:49:57;;;;;;;4.35;2.00;;;;;;;8.19;100.00;99796.72;6148246;23;20029;-90
2022/12/29 02:52:33;;;;;;;3.33;1.90;;;;;;;8.26;100.00;99810.47;6173044;23;20016;-90
2022/12/29 02:54:59;;;;;;;4.13;1.70;;;;;;;8.31;100.00;99801.31;6175674;23;20447;-89
2022/12/29 02:57:25;;;;;;;2.70;1.95;;;;;;;8.36;100.00;99816.94;6172658;23;20323;-90
2022/12/29 03:00:11;;;;;;;4.53;2.08;;;;;;;8.36;100.00;99796.63;6173857;23;20462;-91
2022/12/29 03:02:54;;;;;;;5.10;2.00;;;;;;;8.38;100.00;99781.50;6173498;23;20005;-91
2022/12/29 03:05:47;;;;;;;3.58;1.88;;;;;;;8.38;100.00;99799.19;6173700;23;20009;-90
2022/12/29 03:08:24;;;;;;;4.35;2.05;;;;;;;8.35;100.00;99781.63;6173578;23;20069;-90
2022/12/29 03:11:04;;;;;;;3.72;2.13;;;;;;;8.39;100.00;99785.00;6173466;23;20040;-89
2022/12/29 03:16:40;;;;;;;5.95;2.50;;;;;;;8.32;100.00;99792.44;6172904;23;20346;-90
2022/12/29 03:19:23;;;;;;;2.63;1.70;;;;;;;8.27;100.00;99794.47;6174293;23;20080;-91
2022/12/29 03:22:30;;;;;;;4.88;2.50;;;;;;;8.21;100.00;99781.59;6173869;23;20012;-92
2022/12/29 03:25:14;;;;;;;3.97;1.77;;;;;;;8.19;100.00;99781.69;6148257;23;20028;-90
2022/12/29 03:27:55;;;;;;;6.68;2.00;;;;;;;8.24;100.00;99784.94;6178276;23;20080;-89
2022/12/29 03:30:22;;;;;;;3.88;1.98;;;;;;;8.23;100.00;99785.00;6172214;23;20074;-90
2022/12/29 03:32:54;;;;;;;3.20;1.75;;;;;;;8.13;100.00;99763.47;6148042;23;20048;-90
2022/12/29 03:35:22;;;;;;;4.50;1.95;;;;;;;8.19;100.00;99772.88;6172918;23;20027;-90
2022/12/29 03:38:23;;;;;;;4.93;1.85;;;;;;;8.11;100.00;99785.69;6173053;23;20398;-89
2022/12/29 03:40:54;;;;;;;3.65;2.00;;;;;;;8.07;100.00;99782.41;6172956;23;20005;-90
2022/12/29 03:43:19;;;;;;;3.97;1.75;;;;;;;8.01;100.00;99784.53;6146020;23;20646;-89
2022/12/29 03:45:45;;;;;;;4.60;1.60;;;;;;;8.06;100.00;99788.63;6172919;23;20011;-89
2022/12/29 03:48:10;;;;;;;5.47;1.70;;;;;;;8.05;100.00;99781.63;6173217;23;20107;-88
2022/12/29 03:50:36;;;;;;;3.72;1.50;;;;;;;7.98;100.00;99775.84;6171898;23;20033;-89
2022/12/29 03:53:01;;;;;;;5.25;1.73;;;;;;;7.91;100.00;99782.41;6173105;23;20079;-89
2022/12/29 03:55:26;;;;;;;4.63;1.52;;;;;;;7.78;100.00;99777.91;6172357;23;20012;-89
2022/12/29 03:57:51;;;;;;;3.85;1.60;;;;;;;7.84;100.00;99783.69;6172282;23;20894;-90
2022/12/29 04:00:17;;;;;;;3.60;1.80;;;;;;;7.73;100.00;99780.78;6170660;23;20036;-89
2022/12/29 04:02:42;;;;;;;5.07;1.52;;;;;;;7.83;100.00;99805.84;6173318;23;20005;-89
2022/12/29 04:05:08;;;;;;;4.93;1.60;;;;;;;7.74;100.00;99801.06;6191928;23;20009;-90
2022/12/29 04:07:33;;;;;;;5.05;1.70;;;;;;;7.79;100.00;99820.19;6194349;23;20025;-89
2022/12/29 04:09:58;;;;;;;3.83;1.50;;;;;;;7.80;100.00;99823.69;6197748;23;20001;-89
2022/12/29 04:12:24;;;;;;;5.65;1.50;;;;;;;7.72;100.00;99821.47;6194695;23;19993;-88
2022/12/29 04:14:49;;;;;;;4.43;1.40;;;;;;;7.75;100.00;99808.06;6196414;23;20032;-89
2022/12/29 04:17:14;;;;;;;3.20;1.58;;;;;;;7.65;100.00;99805.06;6196145;23;20079;-90
2022/12/29 04:19:40;;;;;;;5.60;1.30;;;;;;;7.64;100.00;99803.34;6158457;23;20027;-89
2022/12/29 04:22:05;;;;;;;3.78;1.73;;;;;;;7.55;100.00;99821.53;6177825;23;20005;-91
2022/12/29 04:24:30;;;;;;;7.38;1.58;;;;;;;7.52;100.00;99822.53;6151391;23;20071;-90
2022/12/29 04:26:56;;;;;;;3.72;1.50;;;;;;;7.42;100.00;99824.00;6177818;23;20009;-90
2022/12/29 04:29:21;;;;;;;3.75;1.30;;;;;;;7.33;100.00;99817.41;6177038;23;20004;-90
2022/12/29 04:31:46;;;;;;;4.93;1.60;;;;;;;7.25;100.00;99816.97;6177786;23;20021;-90
2022/12/29 04:34:12;;;;;;;7.22;1.80;;;;;;;7.17;100.00;99829.75;6178252;23;20308;-89
2022/12/29 04:36:39;;;;;;;7.43;2.10;;;;;;;7.26;100.00;99826.59;6176199;23;20474;-89
2022/12/29 04:39:05;;;;;;;4.68;1.58;;;;;;;7.16;100.00;99838.63;6177263;23;20009;-90
2022/12/29 04:41:30;;;;;;;7.03;1.92;;;;;;;7.13;100.00;99846.72;6176752;23;20052;-90
2022/12/29 04:43:55;;;;;;;8.40;2.50;;;;;;;7.05;100.00;99839.19;6150929;23;20001;-90
2022/12/29 04:46:21;;;;;;;8.18;1.95;;;;;;;7.15;100.00;99842.22;6176766;23;20013;-89
2022/12/29 04:48:46;;;;;;;7.22;2.30;;;;;;;7.14;100.00;99843.97;6176958;23;20005;-89
2022/12/29 04:51:11;;;;;;;9.48;2.40;;;;;;;7.13;100.00;99844.06;6179154;23;20004;-88
2022/12/29 04:53:38;;;;;;;8.30;2.10;;;;;;;7.08;100.00;99856.69;6178350;23;20009;-90
2022/12/29 04:56:03;;;;;;;6.57;2.28;;;;;;;7.01;100.00;99850.84;6177226;23;20076;-90
2022/12/29 04:58:29;;;;;;;8.20;2.30;;;;;;;7.02;100.00;99846.41;6178359;23;20274;-90
2022/12/29 05:00:54;;;;;;;5.68;2.28;;;;;;;6.94;100.00;99846.84;6151093;23;20348;-89
2022/12/29 05:03:20;;;;;;;6.63;2.00;;;;;;;6.90;100.00;99854.06;6175632;23;20039;-90
2022/12/29 05:05:45;;;;;;;8.75;2.25;;;;;;;6.89;100.00;99862.06;6178188;23;20004;-89
2022/12/29 05:08:10;;;;;;;8.98;2.30;;;;;;;6.90;100.00;99869.09;6153044;23;20097;-90
2022/12/29 05:10:36;;;;;;;7.55;2.05;;;;;;;6.82;100.00;99866.00;6175972;23;20005;-89
2022/12/29 05:13:01;;;;;;;4.95;1.80;;;;;;;6.91;100.00;99876.94;6176684;23;20037;-89
2022/12/29 05:15:26;;;;;;;4.60;1.80;;;;;;;6.84;100.00;99869.41;6175846;23;20055;-89
2022/12/29 05:17:52;;;;;;;5.95;1.90;;;;;;;6.85;100.00;99882.53;6176199;23;20089;-90
2022/12/29 05:20:17;;;;;;;5.50;2.10;;;;;;;6.87;100.00;99879.81;6173862;23;20013;-90
2022/12/29 05:22:42;;;;;;;5.57;1.92;;;;;;;6.97;100.00;99892.47;6176244;23;20004;-90
2022/12/29 05:25:08;;;;;;;5.47;1.92;;;;;;;6.98;100.00;99878.34;6150596;23;20005;-91
2022/12/29 05:27:34;;;;;;;7.35;2.55;;;;;;;7.09;100.00;99885.72;6152289;23;20506;-89
2022/12/29 05:29:59;;;;;;;5.65;2.00;;;;;;;7.05;100.00;99870.94;6177773;23;20080;-90
2022/12/29 05:32:25;;;;;;;12.23;2.13;;;;;;;7.22;100.00;99893.88;6175074;23;20546;-90
2022/12/29 05:34:50;;;;;;;6.50;2.00;;;;;;;7.22;100.00;99885.94;6176220;23;20088;-90
2022/12/29 05:37:16;;;;;;;8.10;2.22;;;;;;;7.17;100.00;99883.53;6174468;23;20036;-89
2022/12/29 05:39:41;;;;;;;6.30;1.75;;;;;;;7.22;100.00;99901.81;6172881;23;20521;-89
2022/12/29 05:42:06;;;;;;;7.95;1.90;;;;;;;7.17;100.00;99896.75;6174227;23;20005;-91
2022/12/29 05:44:32;;;;;;;4.90;1.67;;;;;;;7.22;100.00;99901.81;6174845;23;20424;-90
2022/12/29 05:46:57;;;;;;;6.75;2.08;;;;;;;7.24;100.00;99921.97;6149023;23;20009;-89
2022/12/29 05:49:22;;;;;;;5.30;1.85;;;;;;;7.28;100.00;99905.94;6173239;23;20854;-90
2022/12/29 05:51:47;;;;;;;7.20;2.17;;;;;;;7.24;100.00;99911.41;6174481;23;20005;-91
2022/12/29 05:54:13;;;;;;;8.75;2.10;;;;;;;7.25;100.00;99933.41;6173626;23;20012;-90
2022/12/29 05:56:38;;;;;;;6.35;1.98;;;;;;;7.34;100.00;99922.34;6174055;23;20067;-89
2022/12/29 05:59:04;;;;;;;5.03;2.00;;;;;;;7.35;100.00;99918.75;6148773;23;20007;-91
2022/12/29 06:01:29;;;;;;;6.35;2.03;;;;;;;7.35;100.00;99910.81;6172100;23;20011;-90
2022/12/29 06:03:54;;;;;;;5.30;2.10;;;;;;;7.43;100.00;99942.19;6174347;23;20005;-90
2022/12/29 06:06:20;;;;;;;6.28;2.17;;;;;;;7.40;100.00;99911.47;6173866;23;20005;-90
2022/12/29 06:08:45;;;;;;;6.55;1.85;;;;;;;7.45;100.00;99922.66;6174591;23;20005;-91
2022/12/29 06:11:10;;;;;;;5.63;2.38;;;;;;;7.48;100.00;99924.25;6172626;23;20023;-90
2022/12/29 06:13:36;;;;;;;6.40;1.90;;;;;;;7.52;100.00;99923.16;6173061;23;20001;-90
2022/12/29 06:16:01;;;;;;;6.18;1.90;;;;;;;7.49;100.00;99926.00;6176126;23;20007;-90
2022/12/29 06:18:27;;;;;;;4.15;1.65;;;;;;;7.45;100.00;99920.00;6146836;23;20001;-90
2022/12/29 06:20:52;;;;;;;5.68;2.00;;;;;;;7.54;100.00;99929.25;6173120;23;20008;-91
2022/12/29 06:23:18;;;;;;;5.57;1.88;;;;;;;7.48;100.00;99925.16;6173135;23;20065;-90
2022/12/29 06:25:43;;;;;;;7.05;2.78;;;;;;;7.52;100.00;99919.66;6179286;23;19999;-89
2022/12/29 06:28:10;;;;;;;5.68;2.10;;;;;;;7.51;100.00;99928.56;6201714;23;20013;-90
2022/12/29 06:30:35;;;;;;;5.28;1.80;;;;;;;7.56;100.00;99908.81;6198355;23;20036;-89
2022/12/29 06:33:01;;;;;;;6.68;1.95;;;;;;;7.56;100.00;99919.41;6198267;23;20057;-90
2022/12/29 06:35:26;;;;;;;6.78;2.00;;;;;;;7.47;100.00;99912.81;6199919;23;20137;-91
2022/12/29 06:37:51;;;;;;;6.15;2.13;;;;;;;7.57;100.00;99917.66;6199151;23;20337;-90
2022/12/29 06:40:17;;;;;;;6.88;1.90;;;;;;;7.62;100.00;99915.59;6196784;23;20009;-91
2022/12/29 06:42:42;;;;;;;4.10;2.00;;;;;;;7.62;100.00;99915.59;6199334;23;20004;-90
2022/12/29 06:45:08;;;;;;;6.50;2.03;;;;;;;7.65;100.00;99911.00;6189201;23;20005;-90
2022/12/29 06:47:34;;;;;;;5.13;2.03;;;;;;;7.64;100.00;99900.47;6177975;23;20051;-90
2022/12/29 06:50:00;;;;;;;8.05;1.92;;;;;;;7.69;100.00;99915.22;6178106;23;20009;-92
2022/12/29 06:52:26;;;;;;;6.28;2.00;;;;;;;7.65;100.00;99911.00;6177775;23;20096;-89
2022/12/29 06:54:51;;;;;;;8.40;2.88;;;;;;;7.70;100.00;99924.00;6179536;23;20013;-90
2022/12/29 06:57:16;;;;;;;5.70;2.00;;;;;;;7.72;100.00;99906.22;6177323;23;20001;-89
2022/12/29 06:59:41;;;;;;;8.48;2.47;;;;;;;7.77;100.00;99919.22;6176113;23;19997;-90
2022/12/29 07:02:10;;;;;;;5.05;2.00;;;;;;;7.74;100.00;99918.47;6175106;23;20013;-90
2022/12/29 07:04:35;;;;;;;7.53;2.40;;;;;;;7.68;100.00;99924.06;6174283;23;20005;-89
2022/12/29 07:07:00;;;;;;;3.80;1.88;;;;;;;7.60;100.00;99928.91;6175804;23;20016;-91
2022/12/29 07:09:26;;;;;;;8.98;2.50;;;;;;;7.62;100.00;99931.50;6174159;23;20019;-90
2022/12/29 07:11:51;;;;;;;9.85;2.50;;;;;;;7.64;100.00;99932.25;6175627;23;20474;-90
2022/12/29 07:14:16;;;;;;;7.95;2.50;;;;;;;7.62;100.00;99947.38;6176776;23;20008;-91
2022/12/29 07:16:42;;;;;;;7.45;2.20;;;;;;;7.61;100.00;99935.94;6173809;23;20007;-91
2022/12/29 07:19:07;;;;;;;9.82;2.45;;;;;;;7.67;100.00;99940.06;6174188;23;20008;-90
2022/12/29 07:21:32;;;;;;;9.95;3.10;;;;;;;7.64;100.00;99959.59;6174197;23;20941;-92
2022/12/29 07:23:58;;;;;;;10.15;2.58;;;;;;;7.56;100.00;99943.25;6150522;23;20069;-91
2022/12/29 07:26:24;;;;;;;7.50;2.45;;;;;;;7.54;100.00;99946.94;6175977;23;20051;-90
2022/12/29 07:28:49;;;;;;;6.13;2.47;;;;;;;7.63;100.00;99964.97;6181025;23;20394;-90
2022/12/29 07:31:17;;;;;;;10.90;3.33;;;;;;;7.65;100.00;99960.44;6178368;23;20071;-90
2022/12/29 07:33:43;;;;;;;8.05;2.47;;;;;;;7.70;100.00;99976.97;6177325;23;20339;-90
2022/12/29 07:36:10;;;;;;;7.50;2.47;;;;;;;7.78;100.00;99963.34;6177549;23;20039;-91
2022/12/29 07:38:35;;;;;;;9.15;2.70;;;;;;;7.76;100.00;99954.59;6175851;23;20024;-91
2022/12/29 07:41:01;;;;;;;9.43;2.85;;;;;;;7.77;100.00;99978.34;6176584;23;20008;-93
2022/12/29 07:43:26;;;;;;;9.95;2.65;;;;;;;7.81;100.00;99984.34;6176856;23;20343;-87
2022/12/29 07:45:52;;;;;;;8.52;2.55;;;;;;;7.84;100.00;99974.44;6174576;23;20044;-90
2022/12/29 07:48:17;;;;;;;11.05;3.38;;;;;;;7.85;100.00;99976.13;6145803;23;19997;-88
2022/12/29 07:50:42;;;;;;;9.25;2.60;;;;;;;7.90;100.00;99966.19;6172420;23;20372;-90
2022/12/29 07:53:07;;;;;;;6.93;2.78;;;;;;;7.90;100.00;99968.81;6171650;23;20153;-89
2022/12/29 07:55:33;;;;;;;9.48;2.95;;;;;;;7.95;100.00;99974.72;6172372;23;20036;-88
2022/12/29 07:57:58;;;;;;;9.35;2.70;;;;;;;8.02;100.00;99963.78;6172270;23;20004;-87
2022/12/29 08:00:24;;;;;;;8.57;2.60;;;;;;;7.99;100.00;99980.72;6171745;23;20012;-92
2022/12/29 08:02:49;;;;;;;12.27;2.95;;;;;;;8.01;100.00;99985.94;6175640;23;20005;-88
2022/12/29 08:05:15;;;;;;;8.10;2.45;;;;;;;7.98;100.00;99982.53;6173244;23;20012;-89
2022/12/29 08:07:43;;;;;;;10.13;2.50;;;;;;;8.06;100.00;99986.53;6173490;23;20005;-90
2022/12/29 08:10:08;;;;;;;7.25;2.42;;;;;;;8.05;100.00;99974.22;6171963;23;20102;-89
2022/12/29 08:12:33;;;;;;;7.45;2.75;;;;;;;8.11;100.00;99989.78;6148530;23;20091;-88
2022/12/29 08:14:58;;;;;;;8.80;2.58;;;;;;;8.10;99.68;99990.72;6174432;23;20008;-90
2022/12/29 08:17:24;;;;;;;10.07;2.78;;;;;;;8.12;99.89;99991.50;6171452;23;20005;-90
2022/12/29 08:19:49;;;;;;;10.43;2.65;;;;;;;8.13;98.64;100004.69;6171752;23;20502;-88
2022/12/29 08:22:15;;;;;;;9.95;2.80;;;;;;;8.14;98.63;100001.06;6171719;23;20005;-88
2022/12/29 08:24:40;;;;;;;9.95;2.92;;;;;;;8.16;97.81;100007.16;6174197;23;20335;-89
2022/12/29 08:27:06;;;;;;;9.73;3.22;;;;;;;8.03;100.00;99997.31;6173641;23;20009;-92
2022/12/29 08:29:31;;;;;;;11.25;3.13;;;;;;;8.12;99.51;100010.06;6179870;23;20044;-85
2022/12/29 08:31:56;;;;;;;10.30;3.15;;;;;;;8.11;100.00;100010.97;6175371;23;20060;-89
2022/12/29 08:34:22;;;;;;;10.07;2.65;;;;;;;8.13;100.00;100011.78;6176529;23;20008;-86
2022/12/29 08:36:48;;;;;;;8.35;2.80;;;;;;;8.16;99.71;100020.41;6176275;23;20012;-88
2022/12/29 08:39:13;;;;;;;10.32;2.90;;;;;;;8.17;99.42;99997.41;6180676;23;20002;-90
2022/12/29 08:41:39;;;;;;;10.45;3.05;;;;;;;8.19;99.62;100003.47;6199076;23;20024;-88
2022/12/29 08:44:05;;;;;;;7.38;2.42;;;;;;;8.25;97.97;100008.47;6196378;23;20005;-89
2022/12/29 08:46:30;;;;;;;9.68;3.17;;;;;;;8.32;96.84;100003.66;6194315;23;20308;-89
2022/12/29 08:48:55;;;;;;;9.68;2.70;;;;;;;8.28;97.67;100005.66;6169827;23;20364;-87
2022/12/29 08:51:21;;;;;;;9.88;2.70;;;;;;;8.23;98.16;100007.66;6196554;23;20008;-89
2022/12/29 08:53:46;;;;;;;7.05;2.60;;;;;;;8.26;97.81;99999.56;6188579;23;20011;-88
2022/12/29 08:56:11;;;;;;;7.25;2.58;;;;;;;8.23;98.58;99991.75;6162357;23;20013;-88
2022/12/29 08:58:37;;;;;;;10.65;3.13;;;;;;;8.31;97.81;100001.94;6179215;23;20009;-88
2022/12/29 09:01:02;;;;;;;7.35;2.25;;;;;;;8.41;95.64;100008.50;6175206;23;20013;-87
2022/12/29 09:03:28;;;;;;;8.60;2.95;;;;;;;8.39;96.49;100013.88;6173460;23;20001;-87
2022/12/29 09:05:55;;;;;;;11.48;3.13;;;;;;;8.43;96.79;100022.53;6174619;23;20009;-88
2022/12/29 09:08:21;;;;;;;11.00;3.17;;;;;;;8.49;94.79;100008.94;6173766;23;20001;-87
2022/12/29 09:10:46;;;;;;;10.23;2.60;;;;;;;8.53;93.76;100015.78;6181519;23;19993;-88
2022/12/29 09:13:13;;;;;;;9.90;2.90;;;;;;;8.62;94.24;100004.66;6176715;23;20047;-89
2022/12/29 09:15:39;;;;;;;8.05;2.47;;;;;;;8.75;92.98;100017.25;6148045;23;20044;-89
2022/12/29 09:18:06;;;;;;;6.40;2.35;;;;;;;8.88;91.28;100028.88;6174150;23;20012;-90
2022/12/29 09:20:31;;;;;;;7.55;2.30;;;;;;;8.78;93.11;100014.38;6173828;23;20120;-91
2022/12/29 09:22:57;;;;;;;7.97;2.78;;;;;;;8.70;93.71;100028.13;6174338;23;20033;-90
2022/12/29 09:25:24;;;;;;;8.77;2.72;;;;;;;8.61;95.23;100025.94;6175910;23;20008;-87
2022/12/29 09:27:50;;;;;;;9.23;2.55;;;;;;;8.60;94.63;100026.91;6177372;23;20005;-88
2022/12/29 09:30:15;;;;;;;8.48;2.55;;;;;;;8.50;95.12;100023.91;6176438;23;20140;-86
2022/12/29 09:32:41;;;;;;;8.15;2.72;;;;;;;8.52;95.53;100039.72;6174730;23;20048;-90
2022/12/29 09:35:06;;;;;;;8.30;2.45;;;;;;;8.63;94.91;100034.69;6175435;23;20382;-88
2022/12/29 09:37:32;;;;;;;8.95;2.63;;;;;;;8.56;96.71;100046.56;6151432;23;20583;-90
2022/12/29 09:39:58;;;;;;;7.03;2.15;;;;;;;8.57;95.91;100037.66;6179153;23;20031;-88
2022/12/29 09:42:45;;;;;;;9.93;2.50;;;;;;;8.51;97.61;100046.84;6173665;23;20057;-88
2022/12/29 09:45:22;;;;;;;9.15;2.83;;;;;;;8.47;97.61;100054.09;6171866;23;20009;-88
2022/12/29 09:47:47;;;;;;;13.05;3.25;;;;;;;8.35;100.00;100052.06;6176250;23;20001;-89
2022/12/29 09:50:35;;;;;;;8.40;2.72;;;;;;;8.34;100.00;100055.69;6148641;23;20075;-90
2022/12/29 09:53:18;;;;;;;9.77;2.63;;;;;;;8.18;100.00;100073.34;6149455;23;20005;-92
2022/12/29 09:55:56;;;;;;;11.13;2.67;;;;;;;8.09;100.00;100073.84;6175826;23;20055;-89
2022/12/29 09:58:37;;;;;;;8.30;2.90;;;;;;;8.13;100.00;100088.63;6177870;23;20005;-89
2022/12/29 10:01:19;;;;;;;7.68;2.85;;;;;;;8.10;100.00;100102.03;6148644;23;20009;-91
2022/12/29 10:03:54;;;;;;;8.88;2.60;;;;;;;8.16;100.00;100091.13;6178115;23;20012;-91
2022/12/29 10:06:42;;;;;;;9.75;2.75;;;;;;;8.10;100.00;100116.16;6176728;23;20019;-89
2022/12/29 10:09:19;;;;;;;10.98;2.88;;;;;;;7.98;100.00;100104.41;6176274;23;20663;-91
2022/12/29 10:12:03;;;;;;;8.63;2.47;;;;;;;7.81;100.00;100122.09;6176126;23;20423;-90
2022/12/29 10:14:58;;;;;;;10.95;2.47;;;;;;;7.76;100.00;100119.69;6147326;23;20013;-90
2022/12/29 10:17:52;;;;;;;7.22;2.45;;;;;;;7.74;100.00;100135.66;6172372;23;20856;-89
2022/12/29 10:20:20;;;;;;;;;;;;;;;7.67;100.00;100131.59;6175414;23;20331;-89
2022/12/29 10:23:09;;;;;;;8.10;2.53;;;;;;;7.68;100.00;100125.38;6176184;23;19958;-91
2022/12/29 10:25:38;;;;;;;12.35;3.35;;;;;;;7.70;100.00;100141.19;6147458;23;20017;-90
2022/12/29 10:28:19;;;;;;;9.32;2.42;;;;;;;7.63;100.00;100158.31;6147574;23;20091;-89
2022/12/29 10:30:47;;;;;;;10.40;3.10;;;;;;;7.52;100.00;100156.19;6173006;23;20020;-88
2022/12/29 10:33:18;;;;;;;11.25;3.15;;;;;;;7.40;100.00;100157.66;6172364;23;20016;-89
2022/12/29 10:35:44;;;;;;;12.65;3.10;;;;;;;7.36;100.00;100164.06;6173988;23;20001;-88
2022/12/29 10:38:15;;;;;;;7.22;3.38;;;;;;;7.33;100.00;100172.13;6146156;23;20307;-88
2022/12/29 10:41:19;;;;;;;12.57;3.38;;;;;;;7.27;100.00;100164.47;6174346;23;20192;-88
2022/12/29 10:43:47;;;;;;;7.65;2.63;;;;;;;7.34;100.00;100175.63;6126862;23;20019;-89
2022/12/29 10:46:18;;;;;;;11.10;3.20;;;;;;;7.33;100.00;100185.38;6171542;23;20454;-88
2022/12/29 10:48:46;;;;;;;12.32;3.63;;;;;;;7.30;100.00;100195.25;6173520;23;20005;-88
2022/12/29 10:51:21;;;;;;;11.10;3.45;;;;;;;7.20;100.00;100184.25;6172384;23;20008;-88
2022/12/29 10:54:20;;;;;;;12.90;3.40;;;;;;;7.23;100.00;100199.94;6172260;23;20061;-88
2022/12/29 10:56:54;;;;;;;10.48;2.88;;;;;;;7.20;100.00;100210.72;6133451;23;20441;-87
2022/12/29 10:59:23;;;;;;;12.32;3.38;;;;;;;7.27;100.00;100217.41;6172799;23;20510;-88
2022/12/29 11:02:09;;;;;;;12.25;3.22;;;;;;;7.21;100.00;100200.03;6177882;23;20013;-88
2022/12/29 11:04:58;;;;;;;10.93;3.17;;;;;;;7.23;100.00;100200.84;6132925;23;20009;-88
2022/12/29 11:07:25;;;;;;;11.38;3.80;;;;;;;7.20;100.00;100205.41;6195081;23;20011;-88
2022/12/29 11:09:51;;;;;;;10.15;3.45;;;;;;;7.18;100.00;100209.91;6196949;23;20001;-88
2022/12/29 11:12:37;;;;;;;12.55;3.55;;;;;;;7.27;100.00;100201.53;6189681;23;20035;-89
2022/12/29 11:15:07;;;;;;;11.73;3.53;;;;;;;7.51;100.00;100196.00;6165502;23;20036;-89
2022/12/29 11:17:46;;;;;;;11.65;3.30;;;;;;;7.61;100.00;100218.47;6182630;23;20005;-89
2022/12/29 11:20:30;;;;;;;11.63;3.33;;;;;;;7.59;100.00;100218.53;6177371;23;19997;-89
2022/12/29 11:22:57;;;;;;;;;;;;;;;7.57;100.00;100216.91;6178888;23;20059;-89
2022/12/29 11:25:22;;;;;;;12.20;3.22;;;;;;;7.63;100.00;100217.44;6177724;23;19915;-89
2022/12/29 11:28:14;;;;;;;13.43;3.10;;;;;;;7.73;100.00;100225.78;6176742;23;20001;-89
2022/12/29 11:30:40;;;;;;;12.77;3.90;;;;;;;7.91;100.00;100222.25;6161521;23;20013;-89
2022/12/29 11:33:06;;;;;;;11.90;3.33;;;;;;;7.83;100.00;100220.91;6178795;23;20128;-88
2022/12/29 11:35:31;;;;;;;13.20;3.55;;;;;;;7.83;100.00;100242.97;6176273;23;20009;-89
2022/12/29 11:37:58;;;;;;;8.70;3.28;;;;;;;7.88;100.00;100243.59;6175767;23;20017;-90
2022/12/29 11:40:24;;;;;;;11.65;3.33;;;;;;;7.95;100.00;100230.91;6175270;23;20450;-89
2022/12/29 11:42:49;;;;;;;12.45;3.40;;;;;;;8.06;100.00;100240.97;6175615;23;20042;-89
2022/12/29 11:45:23;;;;;;;12.45;3.30;;;;;;;7.96;100.00;100228.19;6176240;23;20005;-92
2022/12/29 11:47:54;;;;;;;13.82;3.28;;;;;;;8.03;100.00;100238.50;6175770;23;20005;-88
2022/12/29 11:50:26;;;;;;;9.80;3.40;;;;;;;8.17;100.00;100241.28;6171657;23;20013;-89
2022/12/29 11:52:59;;;;;;;9.23;2.92;;;;;;;8.28;100.00;100256.63;6171099;23;20009;-88
2022/12/29 11:55:27;;;;;;;10.80;3.33;;;;;;;8.32;100.00;100255.53;6173239;23;20005;-90
2022/12/29 11:57:55;;;;;;;13.85;3.30;;;;;;;8.29;100.00;100247.78;6174813;23;20009;-93
2022/12/29 12:00:24;;;;;;;12.15;2.95;;;;;;;8.40;100.00;100248.09;6173077;23;20488;-87
2022/12/29 12:03:12;;;;;;;7.90;3.22;;;;;;;8.40;100.00;100261.34;6174949;23;20009;-91
2022/12/29 12:05:58;;;;;;;10.13;3.00;;;;;;;8.40;100.00;100254.28;6173664;23;20001;-91
2022/12/29 12:08:23;;;;;;;9.43;2.90;;;;;;;8.52;100.00;100250.13;6171531;23;20067;-93
2022/12/29 12:11:02;;;;;;;9.68;2.70;;;;;;;8.57;100.00;100242.81;6176837;23;20072;-88
2022/12/29 12:14:00;;;;;;;10.27;3.03;;;;;;;8.65;100.00;100237.94;6175498;23;20005;-88